Benton Harbor, MI

9:25 PM EDT on July 22, 2017 (GMT -0400)
Southwest Michigan Regional

Weather History for KBEH - February, 2014

Change the Weather History Date:

Wednesday, February 26, 2014

  Actual Average Record
Temperature  
Mean Temperature 12 °F -  
Max Temperature 18 °F 37 °F 59 °F (1957)
Min Temperature 8 °F 20 °F -5 °F (1963)
Degree Days  
Heating Degree Days 53    
Moisture  
Dew Point 3 °F    
Average Humidity 73    
Maximum Humidity 92    
Minimum Humidity 56    
Precipitation  
Precipitation 0.00 in - - ()
Sea Level Pressure  
Sea Level Pressure 30.07 in    
Wind  
Wind Speed 13 mph (West)    
Max Wind Speed 30 mph    
Max Gust Speed 40 mph    
Visibility 3 miles    
Events Fog , Snow    
Averages and records for this station are not official NWS values.
T = Trace of Precipitation, MM = Missing Value Source: NWS Daily Summary

Daily Weather History Graph

Daily Weather History Graph

Search for Another Location

Airport or City:

Trip Planner

Search our weather history database for the weather conditions in past years. The results will help you decide how hot, cold, wet, or windy it might be!

Date:

Astronomy

Feb. 26, 2014 Rise Set
Actual Time 7:25 AM EST 6:32 PM EST
Civil Twilight 6:57 AM EST 7:00 PM EST
Nautical Twilight 6:25 AM EST 7:32 PM EST
Astronomical Twilight 5:52 AM EST 8:05 PM EST
Moon 5:13 AM EST (2/26) 3:44 PM EST (2/26)
Length of Visible Light 12h 02m
Length of Day
11h 06m
Waning Crescent, 10% of the Moon is Illuminated
Feb 26
Waning Crescent
Mar 1
New
Mar 8
First Quarter
Mar 16
Full
Mar 23
Last Quarter

Hourly Weather History & Observations

Time (EST) Temp. Windchill Dew Point Humidity Pressure Visibility Wind Dir Wind Speed Gust Speed Precip Events Conditions
12:53 AM 12.9 °F -2.8 °F 3.0 °F 65% 30.16 in 8.0 mi NW 15.0 mph 24.2 mph 0.00 in   Overcast
1:09 AM 12.2 °F -1.0 °F 5.0 °F 73% 30.13 in 2.5 mi NW 10.4 mph 23.0 mph 0.00 in Snow Light Snow
1:26 AM 10.4 °F -6.6 °F 3.2 °F 73% 30.13 in 4.0 mi WNW 16.1 mph 23.0 mph 0.00 in Snow Light Snow
1:42 AM 10.4 °F -4.1 °F 3.2 °F 73% 30.13 in 2.5 mi NW 11.5 mph 24.2 mph 0.00 in Snow Light Snow
1:49 AM 10.4 °F -5.4 °F 3.2 °F 73% 30.13 in 5.0 mi WNW 13.8 mph 21.9 mph 0.00 in Snow Light Snow
1:53 AM 10.9 °F -2.6 °F 3.9 °F 73% 30.17 in 4.0 mi WNW 10.4 mph 21.9 mph 0.00 in Snow Light Snow
2:09 AM 10.4 °F -5.4 °F 3.2 °F 73% 30.13 in 2.5 mi WNW 13.8 mph 25.3 mph 0.00 in Snow Light Snow
2:16 AM 10.4 °F -4.1 °F 3.2 °F 73% 30.13 in 5.0 mi WNW 11.5 mph 21.9 mph 0.00 in Snow Light Snow
2:26 AM 10.4 °F -4.8 °F 5.0 °F 79% 30.13 in 1.8 mi NW 12.7 mph 24.2 mph 0.00 in Snow Light Snow
2:40 AM 10.4 °F -6.6 °F 6.8 °F 85% 30.13 in 0.8 mi WNW 16.1 mph 20.7 mph 0.00 in Snow Light Snow
2:53 AM 10.9 °F -4.1 °F 7.0 °F 84% 30.17 in 1.0 mi WNW 12.7 mph 20.7 mph 0.00 in Snow Light Snow
3:24 AM 10.4 °F -1.5 °F 6.8 °F 85% 30.13 in 1.5 mi NW 8.1 mph 20.7 mph 0.00 in Snow Light Snow
3:29 AM 10.4 °F -4.1 °F 6.8 °F 85% 30.14 in 3.0 mi WNW 11.5 mph 18.4 mph 0.00 in Snow Light Snow
3:46 AM 10.4 °F -4.8 °F 5.0 °F 79% 30.13 in 1.8 mi WNW 12.7 mph 21.9 mph 0.00 in Snow Light Snow
3:53 AM 10.0 °F -5.2 °F 6.1 °F 84% 30.17 in 1.0 mi NW 12.7 mph 21.9 mph 0.00 in Snow Light Snow
4:04 AM 10.4 °F -4.1 °F 5.0 °F 79% 30.13 in 2.0 mi WNW 11.5 mph 20.7 mph 0.00 in Snow Light Snow
4:19 AM 10.4 °F -4.1 °F 5.0 °F 79% 30.13 in 1.2 mi WNW 11.5 mph 18.4 mph 0.00 in Snow Light Snow
4:47 AM 8.6 °F -6.3 °F 5.0 °F 85% 30.13 in 0.8 mi WNW 11.5 mph 25.3 mph 0.00 in Snow Light Snow
4:53 AM 10.0 °F -5.2 °F 6.1 °F 84% 30.17 in 0.8 mi WNW 12.7 mph 20.7 mph 0.00 in Snow Light Snow
5:04 AM 8.6 °F -5.5 °F 6.8 °F 92% 30.13 in 0.5 mi NW 10.4 mph 20.7 mph 0.00 in Fog , Snow Snow
5:15 AM 8.6 °F -3.7 °F 6.8 °F 92% 30.13 in 0.8 mi WNW 8.1 mph 17.3 mph 0.00 in Snow Light Snow
5:26 AM 8.6 °F -5.5 °F 5.0 °F 85% 30.13 in 1.5 mi WNW 10.4 mph 18.4 mph 0.00 in Snow Light Snow
5:37 AM 8.6 °F -3.7 °F 5.0 °F 85% 30.13 in 1.0 mi WNW 8.1 mph 18.4 mph 0.00 in Snow Light Snow
5:44 AM 8.6 °F -7.0 °F 3.2 °F 79% 30.13 in 1.5 mi WNW 12.7 mph 17.3 mph 0.00 in Snow Light Snow
5:53 AM 9.0 °F -6.6 °F 3.0 °F 77% 30.18 in 3.0 mi WNW 12.7 mph 21.9 mph 0.00 in Snow Light Snow
6:37 AM 8.6 °F -5.5 °F -0.4 °F 67% 30.15 in 6.0 mi WNW 10.4 mph 19.6 mph 0.00 in Snow Light Snow
6:46 AM 8.6 °F -8.9 °F 1.4 °F 73% 30.15 in 2.5 mi WNW 16.1 mph 21.9 mph 0.00 in Snow Light Snow
6:51 AM 8.6 °F -4.7 °F 3.2 °F 79% 30.14 in 1.2 mi WNW 9.2 mph 21.9 mph 0.00 in Snow Light Snow
6:53 AM 8.1 °F -6.2 °F 3.0 °F 80% 30.19 in 1.2 mi WNW 10.4 mph 21.9 mph 0.00 in Snow Light Snow
6:59 AM 8.6 °F -6.3 °F 3.2 °F 79% 30.14 in 2.0 mi WNW 11.5 mph 18.4 mph 0.00 in Snow Light Snow
7:14 AM 8.6 °F -2.6 °F 3.2 °F 79% 30.15 in 4.0 mi NW 6.9 mph - 0.00 in Snow Light Snow
7:26 AM 8.6 °F -3.7 °F -0.4 °F 67% 30.15 in 9.0 mi WNW 8.1 mph - 0.00 in   Overcast
7:30 AM 8.6 °F -5.5 °F 1.4 °F 73% 30.15 in 2.0 mi WNW 10.4 mph 16.1 mph 0.00 in Snow Light Snow
7:32 AM 8.6 °F -4.7 °F 1.4 °F 73% 30.15 in 1.2 mi WNW 9.2 mph 16.1 mph 0.00 in Snow Light Snow
7:37 AM 8.6 °F -4.7 °F 3.2 °F 79% 30.15 in 0.5 mi WNW 9.2 mph - 0.00 in Fog , Snow Light Snow
7:47 AM 8.6 °F -6.3 °F 3.2 °F 79% 30.14 in 1.0 mi WNW 11.5 mph 18.4 mph 0.00 in Snow Light Snow
7:48 AM 8.1 °F -7.7 °F 3.0 °F 80% 30.19 in 1.0 mi West 12.7 mph 18.4 mph 0.00 in Snow Light Snow
8:01 AM 8.6 °F -4.7 °F 1.4 °F 73% 30.15 in 2.0 mi WNW 9.2 mph - 0.00 in Snow Light Snow
8:08 AM 8.6 °F -6.3 °F 1.4 °F 73% 30.14 in 4.0 mi WNW 11.5 mph 19.6 mph 0.00 in Snow Light Snow
8:29 AM 8.6 °F -4.7 °F -0.4 °F 67% 30.15 in 2.0 mi WNW 9.2 mph 18.4 mph 0.00 in Snow Light Snow
8:35 AM 8.6 °F -4.7 °F -0.4 °F 67% 30.15 in 9.0 mi WNW 9.2 mph - 0.00 in   Overcast
8:48 AM 8.6 °F -6.3 °F 1.4 °F 73% 30.15 in 2.5 mi West 11.5 mph - 0.00 in Snow Light Snow
8:53 AM 8.1 °F -7.0 °F 1.9 °F 76% 30.19 in 1.5 mi WNW 11.5 mph - 0.00 in Snow Light Snow
9:06 AM 8.6 °F -7.0 °F 1.4 °F 73% 30.15 in 3.0 mi West 12.7 mph - 0.00 in Snow Light Snow
9:28 AM 8.6 °F -6.3 °F -0.4 °F 67% 30.15 in 10.0 mi WNW 11.5 mph - 0.00 in   Overcast
9:53 AM 8.1 °F -8.4 °F 1.0 °F 73% 30.19 in 2.5 mi West 13.8 mph - 0.00 in Snow Light Snow
10:03 AM 8.6 °F -7.7 °F 1.4 °F 73% 30.15 in 4.0 mi West 13.8 mph 19.6 mph 0.00 in   Haze
10:10 AM 8.6 °F -8.3 °F 1.4 °F 73% 30.14 in 2.5 mi West 15.0 mph - 0.00 in Snow Light Snow
10:21 AM 8.6 °F -7.0 °F 1.4 °F 73% 30.14 in 3.0 mi West 12.7 mph - 0.00 in Snow Light Snow
10:27 AM 8.6 °F -8.3 °F 1.4 °F 73% 30.14 in 2.0 mi West 15.0 mph 20.7 mph 0.00 in Snow Light Snow
10:29 AM 8.6 °F -7.7 °F 1.4 °F 73% 30.14 in 1.8 mi West 13.8 mph 20.7 mph 0.00 in Snow Light Snow
10:33 AM 8.6 °F -7.7 °F 1.4 °F 73% 30.14 in 1.0 mi West 13.8 mph 20.7 mph 0.00 in Snow Light Snow
10:48 AM 8.6 °F -9.5 °F 3.2 °F 79% 30.13 in 1.8 mi WSW 17.3 mph - 0.00 in Snow Light Snow
10:53 AM 8.1 °F -9.0 °F 1.9 °F 76% 30.17 in 2.0 mi West 15.0 mph - 0.00 in Snow Light Snow
10:58 AM 8.6 °F -7.7 °F 1.4 °F 73% 30.13 in 4.0 mi West 13.8 mph - 0.00 in Snow Light Snow
11:53 AM - - - N/A% - - North - - N/A   Unknown
12:31 PM 9.0 °F -8.5 °F 1.0 °F 70% 30.09 in 5.0 mi WSW 16.1 mph - N/A   Haze
12:53 PM 10.0 °F -7.6 °F 1.0 °F 67% 30.08 in 7.0 mi WSW 17.3 mph - N/A   Overcast
1:53 PM 10.9 °F -6.5 °F 1.0 °F 64% 30.03 in 4.0 mi SW 17.3 mph 28.8 mph N/A   Haze
2:35 PM 10.9 °F -7.0 °F 1.9 °F 67% 29.98 in 5.0 mi SW 18.4 mph 27.6 mph N/A   Haze
2:53 PM 12.0 °F -6.5 °F 1.9 °F 64% 29.96 in 3.0 mi WSW 20.7 mph 27.6 mph N/A   Haze
3:01 PM 10.9 °F -8.8 °F 1.0 °F 64% 29.95 in 1.8 mi SW 23.0 mph 31.1 mph N/A   Haze
3:10 PM 12.0 °F -5.1 °F 1.0 °F 61% 29.95 in 3.0 mi SW 17.3 mph 25.3 mph N/A   Haze
3:53 PM 12.9 °F -5.7 °F 1.0 °F 59% 29.91 in 7.0 mi WSW 21.9 mph 26.5 mph N/A   Mostly Cloudy
4:41 PM 12.9 °F -5.3 °F 1.9 °F 62% 29.88 in 2.5 mi SW 20.7 mph 31.1 mph N/A   Haze
4:51 PM 12.2 °F -5.3 °F 1.4 °F 62% 29.87 in 3.0 mi SW 18.4 mph 28.8 mph N/A   Haze
4:53 PM 12.9 °F -5.7 °F 1.9 °F 62% 29.87 in 3.0 mi SW 21.9 mph - N/A   Haze
5:23 PM 12.0 °F -6.0 °F 1.9 °F 64% 29.85 in 2.5 mi SW 19.6 mph 31.1 mph N/A   Haze
5:31 PM 12.0 °F -6.9 °F 1.9 °F 64% 29.85 in 4.0 mi SW 21.9 mph 31.1 mph N/A   Haze
5:53 PM 12.9 °F -5.3 °F 1.0 °F 59% 29.83 in 10.0 mi SW 20.7 mph 27.6 mph N/A   Overcast
6:53 PM 12.9 °F -3.9 °F -0.0 °F 56% 29.77 in 10.0 mi SW 17.3 mph 28.8 mph N/A   Mostly Cloudy
7:53 PM 12.9 °F -6.1 °F 1.9 °F 62% 29.76 in 3.0 mi SW 23.0 mph 40.3 mph N/A   Haze
8:53 PM 14.0 °F -6.8 °F 1.9 °F 59% 29.76 in 6.0 mi WSW 29.9 mph 38.0 mph N/A   Haze
9:53 PM 15.1 °F -2.9 °F 3.0 °F 59% 29.73 in 9.0 mi WSW 21.9 mph 35.7 mph N/A   Overcast
10:53 PM 16.0 °F -0.9 °F 6.1 °F 65% 29.68 in 10.0 mi WSW 19.6 mph 38.0 mph N/A   Overcast
11:53 PM 18.0 °F -0.5 °F 9.0 °F 68% 29.63 in 8.0 mi WSW 26.5 mph 39.1 mph 0.00 in   Overcast